createdAt,value
2022-10-10T00:01:43.505Z,101160.75
2022-10-10T00:04:12.358Z,101162.44
2022-10-10T00:06:40.964Z,101158.94
2022-10-10T00:09:09.880Z,101162.38
2022-10-10T00:11:38.396Z,101165.78
2022-10-10T00:14:08.836Z,101162.31
2022-10-10T00:16:37.544Z,101151.03
2022-10-10T00:19:06.325Z,101150.16
2022-10-10T00:21:35.045Z,101158.78
2022-10-10T00:24:03.780Z,101154.53
2022-10-10T00:26:32.868Z,101151.91
2022-10-10T00:29:01.418Z,101154.50
2022-10-10T00:31:31.511Z,101155.31
2022-10-10T00:33:59.991Z,101151.81
2022-10-10T00:36:28.531Z,101151.81
2022-10-10T00:38:57.388Z,101159.56
2022-10-10T00:41:27.067Z,101158.66
2022-10-10T00:44:07.937Z,101160.34
2022-10-10T00:46:38.386Z,101163.75
2022-10-10T00:49:10.806Z,101158.56
2022-10-10T00:51:40.369Z,101163.72
2022-10-10T00:54:11.373Z,101161.94
2022-10-10T00:56:45.011Z,101163.66
2022-10-10T00:59:13.863Z,101160.22
2022-10-10T01:01:44.388Z,101148.97
2022-10-10T01:04:34.728Z,101154.19
2022-10-10T01:07:07.256Z,101147.28
2022-10-10T01:09:38.069Z,101148.94
2022-10-10T01:12:19.219Z,101147.19
2022-10-10T01:14:52.819Z,101142.88
2022-10-10T01:17:31.200Z,101146.28
2022-10-10T01:20:32.965Z,101140.25
2022-10-10T01:23:25.376Z,101140.28
2022-10-10T01:26:05.813Z,101140.28
2022-10-10T01:28:44.815Z,101132.53
2022-10-10T01:31:17.014Z,101135.06
2022-10-10T01:33:56.274Z,101141.09
2022-10-10T01:36:32.730Z,101135.09
2022-10-10T01:39:07.729Z,101141.13
2022-10-10T01:41:42.626Z,101150.56
2022-10-10T01:44:12.816Z,101150.53
2022-10-10T01:46:43.490Z,101149.63
2022-10-10T01:49:12.412Z,101146.19
2022-10-10T01:51:59.033Z,101143.59
2022-10-10T01:54:38.570Z,101144.44
2022-10-10T01:57:20.654Z,101144.44
2022-10-10T01:59:54.931Z,101146.16
2022-10-10T02:02:31.683Z,101133.19
2022-10-10T02:05:05.900Z,101132.34
2022-10-10T02:07:41.250Z,101131.47
2022-10-10T02:10:11.596Z,101131.50
2022-10-10T02:12:41.755Z,101128.91
2022-10-10T02:15:15.648Z,101124.53
2022-10-10T02:17:48.994Z,101131.41
2022-10-10T02:20:22.106Z,101138.28
2022-10-10T02:22:52.160Z,101127.91
2022-10-10T02:25:24.877Z,101125.38
2022-10-10T02:28:05.222Z,101135.81
2022-10-10T02:30:37.955Z,101138.38
2022-10-10T02:33:08.778Z,101132.31
2022-10-10T02:35:41.763Z,101138.28
2022-10-10T02:38:13.510Z,101142.44
2022-10-10T02:40:43.141Z,101144.16
2022-10-10T02:43:13.419Z,101142.41
2022-10-10T02:45:44.079Z,101144.06
2022-10-10T02:48:12.685Z,101144.06
2022-10-10T02:50:41.286Z,101140.75
2022-10-10T02:53:09.767Z,101136.53
2022-10-10T02:55:38.751Z,101125.38
2022-10-10T02:58:07.394Z,101126.25
2022-10-10T03:00:36.077Z,101125.38
2022-10-10T03:03:06.166Z,101123.59
2022-10-10T03:05:34.629Z,101121.06
2022-10-10T03:08:05.857Z,101123.81
2022-10-10T03:10:36.597Z,101122.97
2022-10-10T03:13:05.464Z,101123.06
2022-10-10T03:15:33.993Z,101122.19
2022-10-10T03:18:02.917Z,101133.44
2022-10-10T03:20:32.787Z,101130.75
2022-10-10T03:23:01.527Z,101117.72
2022-10-10T03:25:30.193Z,101116.78
2022-10-10T03:27:58.711Z,101115.09
2022-10-10T03:30:27.329Z,101108.19
2022-10-10T03:32:55.810Z,101114.28
2022-10-10T03:35:24.707Z,101113.31
2022-10-10T03:37:54.863Z,101104.59
2022-10-10T03:40:23.754Z,101105.47
2022-10-10T03:42:53.148Z,101107.19
2022-10-10T03:45:23.029Z,101106.34
2022-10-10T03:47:51.664Z,101107.22
2022-10-10T03:50:20.397Z,101108.06
2022-10-10T03:52:49.032Z,101107.97
2022-10-10T03:55:19.539Z,101105.34
2022-10-10T03:57:48.308Z,101101.81
2022-10-10T04:00:17.139Z,101094.97
2022-10-10T04:02:45.803Z,101100.16
2022-10-10T04:05:14.628Z,101095.81
2022-10-10T04:07:43.212Z,101108.78
2022-10-10T04:10:11.898Z,101113.94
2022-10-10T04:12:42.136Z,101101.09
2022-10-10T04:15:12.056Z,101103.81
2022-10-10T04:17:40.663Z,101110.78
2022-10-10T04:20:09.884Z,101097.91
2022-10-10T04:22:38.535Z,101106.53
2022-10-10T04:25:07.554Z,101104.81
2022-10-10T04:27:36.261Z,101099.63
2022-10-10T04:30:07.330Z,101094.50
2022-10-10T04:32:36.215Z,101091.91
2022-10-10T04:35:05.543Z,101090.22
2022-10-10T04:37:35.439Z,101092.88
2022-10-10T04:40:04.148Z,101093.81
2022-10-10T04:42:32.699Z,101092.91
2022-10-10T04:45:01.236Z,101092.94
2022-10-10T04:47:32.084Z,101081.78
2022-10-10T04:50:00.502Z,101065.44
2022-10-10T04:52:29.293Z,101070.59
2022-10-10T04:54:57.820Z,101073.22
2022-10-10T04:57:26.765Z,101068.94
2022-10-10T04:59:55.728Z,101072.38
2022-10-10T05:02:24.727Z,101072.38
2022-10-10T05:04:55.482Z,101073.22
2022-10-10T05:07:24.136Z,101074.09
2022-10-10T05:09:52.766Z,101067.22
2022-10-10T05:12:21.413Z,101073.28
2022-10-10T05:14:51.233Z,101070.72
2022-10-10T05:17:19.862Z,101064.72
2022-10-10T05:19:49.456Z,101068.19
2022-10-10T05:22:19.516Z,101063.88
2022-10-10T05:24:48.193Z,101069.06
2022-10-10T05:27:16.694Z,101070.81
2022-10-10T05:29:46.048Z,101069.13
2022-10-10T05:32:14.818Z,101075.22
2022-10-10T05:34:43.601Z,101081.28
2022-10-10T05:37:12.694Z,101081.34
2022-10-10T05:39:42.669Z,101084.84
2022-10-10T05:42:11.468Z,101082.31
2022-10-10T05:44:40.450Z,101072.88
2022-10-10T05:47:09.628Z,101079.81
2022-10-10T05:49:39.083Z,101078.94
2022-10-10T05:52:07.862Z,101078.09
2022-10-10T05:54:36.601Z,101078.13
2022-10-10T05:57:06.840Z,101080.72
2022-10-10T05:59:35.474Z,101082.47
2022-10-10T06:02:04.073Z,101081.59
2022-10-10T06:04:32.745Z,101084.22
2022-10-10T06:07:01.345Z,101080.75
2022-10-10T06:09:30.058Z,101085.09
2022-10-10T06:11:58.859Z,101084.25
2022-10-10T06:14:29.489Z,101081.66
2022-10-10T06:16:58.031Z,101084.25
2022-10-10T06:19:26.586Z,101082.53
2022-10-10T06:21:55.385Z,101076.50
2022-10-10T06:24:24.112Z,101082.53
2022-10-10T06:26:52.749Z,101076.47
2022-10-10T06:29:21.280Z,101077.34
2022-10-10T06:31:51.415Z,101083.41
2022-10-10T06:34:20.115Z,101085.09
2022-10-10T06:36:50.881Z,101085.06
2022-10-10T06:39:19.519Z,101085.88
2022-10-10T06:41:50.278Z,101092.78
2022-10-10T06:44:20.597Z,101081.47
2022-10-10T06:46:50.469Z,101087.47
2022-10-10T06:49:19.090Z,101082.19
2022-10-10T06:51:47.854Z,101085.59
2022-10-10T06:54:17.281Z,101077.69
2022-10-10T06:56:46.057Z,101085.31
2022-10-10T06:59:14.692Z,101085.00
2022-10-10T07:01:43.579Z,101076.91
2022-10-10T07:04:14.398Z,101076.66
2022-10-10T07:06:43.074Z,101079.03
2022-10-10T07:09:11.645Z,101085.81
2022-10-10T07:11:45.454Z,101076.09
2022-10-10T07:14:15.318Z,101075.94
2022-10-10T07:16:43.933Z,101074.88
2022-10-10T07:19:14.050Z,101071.16
2022-10-10T07:21:44.665Z,101072.81
2022-10-10T07:24:13.288Z,101064.03
2022-10-10T07:26:41.902Z,101061.31
2022-10-10T07:29:10.489Z,101062.84
2022-10-10T07:31:39.105Z,101061.78
2022-10-10T07:34:08.001Z,101071.19
2022-10-10T07:36:38.382Z,101064.03
2022-10-10T07:39:07.126Z,101066.44
2022-10-10T07:41:35.887Z,101055.00
2022-10-10T07:44:04.979Z,101066.88
2022-10-10T07:46:33.561Z,101064.03
2022-10-10T07:49:02.295Z,101062.03
2022-10-10T07:51:31.072Z,101067.94
2022-10-10T07:54:01.698Z,101066.72
2022-10-10T07:56:30.447Z,101066.16
2022-10-10T07:59:00.310Z,101061.34
2022-10-10T08:01:28.982Z,101064.97
2022-10-10T08:03:58.641Z,101066.34
2022-10-10T08:06:27.375Z,101063.72
2022-10-10T08:08:55.967Z,101059.44
2022-10-10T08:11:25.991Z,101058.69
2022-10-10T08:13:54.834Z,101065.22
2022-10-10T08:16:24.472Z,101064.91
2022-10-10T08:18:54.154Z,101053.81
2022-10-10T08:21:23.011Z,101041.75
2022-10-10T08:23:51.938Z,101042.97
2022-10-10T08:26:21.187Z,101034.44
2022-10-10T08:28:51.336Z,101039.47
2022-10-10T08:31:22.904Z,101030.31
2022-10-10T08:33:53.496Z,101030.91
2022-10-10T08:36:24.981Z,101026.53
2022-10-10T08:38:59.657Z,101021.84
2022-10-10T08:41:41.560Z,101033.91
2022-10-10T08:44:20.722Z,101026.09
2022-10-10T08:46:53.947Z,101024.59
2022-10-10T08:49:28.428Z,101033.19
2022-10-10T08:52:03.097Z,101025.56
2022-10-10T08:54:34.371Z,101021.16
2022-10-10T08:57:06.830Z,101019.16
2022-10-10T08:59:41.257Z,101014.25
2022-10-10T09:02:53.045Z,101013.06
2022-10-10T09:05:26.378Z,101008.00
2022-10-10T09:08:26.760Z,101010.09
2022-10-10T09:10:59.586Z,101002.06
2022-10-10T09:13:36.163Z,100994.56
2022-10-10T09:16:15.932Z,100990.25
2022-10-10T09:18:55.206Z,100994.50
2022-10-10T09:21:27.919Z,100986.09
2022-10-10T09:24:04.523Z,100995.69
2022-10-10T09:26:40.220Z,100990.22
2022-10-10T09:29:25.132Z,100988.81
2022-10-10T09:32:00.000Z,100989.66
2022-10-10T09:34:36.858Z,100986.34
2022-10-10T09:37:16.409Z,100987.41
2022-10-10T09:39:59.726Z,100988.81
2022-10-10T09:42:35.324Z,100990.88
2022-10-10T09:45:05.539Z,100986.00
2022-10-10T09:47:35.888Z,100994.47
2022-10-10T09:50:05.510Z,100993.06
2022-10-10T09:52:35.224Z,100999.28
2022-10-10T09:55:16.118Z,100987.25
2022-10-10T09:57:44.848Z,100988.22
2022-10-10T10:00:37.914Z,100988.78
2022-10-10T10:03:16.555Z,100987.09
2022-10-10T10:05:54.447Z,100976.38
2022-10-10T10:08:29.269Z,100991.09
2022-10-10T10:11:02.145Z,100982.03
2022-10-10T10:13:34.043Z,100982.16
2022-10-10T10:16:08.481Z,100970.44
2022-10-10T10:18:43.108Z,100971.25
2022-10-10T10:21:23.778Z,100968.59
2022-10-10T10:23:55.498Z,100950.34
2022-10-10T10:26:27.637Z,100956.28
2022-10-10T10:28:59.141Z,100942.25
2022-10-10T10:31:53.004Z,100944.38
2022-10-10T10:34:47.379Z,100944.81
2022-10-10T10:37:22.583Z,100930.00
2022-10-10T10:40:29.278Z,100936.03
2022-10-10T10:43:34.170Z,100928.47
2022-10-10T10:46:12.005Z,100928.78
2022-10-10T10:48:46.843Z,100923.47
2022-10-10T10:51:44.401Z,100914.66
2022-10-10T10:54:40.405Z,100915.19
2022-10-10T10:57:32.917Z,100911.25
2022-10-10T11:00:22.246Z,100898.34
2022-10-10T11:03:35.170Z,100893.25
2022-10-10T11:06:14.863Z,100896.22
2022-10-10T11:08:59.230Z,100892.38
2022-10-10T11:11:47.992Z,100897.63
2022-10-10T11:14:29.846Z,100895.47
2022-10-10T11:17:05.010Z,100894.00
2022-10-10T11:19:38.895Z,100888.97
2022-10-10T11:22:14.992Z,100884.50
2022-10-10T11:24:52.668Z,100885.81
2022-10-10T11:27:27.836Z,100881.13
2022-10-10T11:30:04.767Z,100869.44
2022-10-10T11:32:40.969Z,100867.69
2022-10-10T11:35:20.029Z,100857.03
2022-10-10T11:38:07.099Z,100851.41
2022-10-10T11:40:54.702Z,100856.13
2022-10-10T11:43:33.301Z,100851.22
2022-10-10T11:46:10.264Z,100849.31
2022-10-10T11:48:49.153Z,100845.66
2022-10-10T11:51:37.329Z,100838.91
2022-10-10T11:54:14.090Z,100838.16
2022-10-10T11:56:52.446Z,100835.91
2022-10-10T11:59:32.127Z,100830.41
2022-10-10T12:02:11.339Z,100827.31
2022-10-10T12:04:41.222Z,100814.22
2022-10-10T12:07:18.359Z,100802.44
2022-10-10T12:09:54.749Z,100804.03
2022-10-10T12:12:34.482Z,100802.63
2022-10-10T12:15:06.831Z,100789.41
2022-10-10T12:17:45.293Z,100790.84
2022-10-10T12:20:34.188Z,100773.03
2022-10-10T12:23:24.440Z,100770.13
2022-10-10T12:25:53.267Z,100760.16
2022-10-10T12:28:30.550Z,100763.31
2022-10-10T12:31:35.645Z,100762.69
2022-10-10T12:34:40.061Z,100749.06
2022-10-10T12:37:22.918Z,100743.16
2022-10-10T12:40:30.687Z,100745.84
2022-10-10T12:43:08.962Z,100737.16
2022-10-10T12:46:26.320Z,100726.75
2022-10-10T12:49:21.099Z,100718.53
2022-10-10T12:52:05.373Z,100714.75
2022-10-10T12:54:41.080Z,100717.28
2022-10-10T12:57:18.137Z,100716.56
2022-10-10T12:59:47.668Z,100710.72
2022-10-10T13:02:21.725Z,100701.91
2022-10-10T13:04:54.758Z,100706.13
2022-10-10T13:07:24.663Z,100705.09
2022-10-10T13:09:56.906Z,100699.47
2022-10-10T13:12:28.144Z,100694.59
2022-10-10T13:14:59.571Z,100688.66
2022-10-10T13:17:30.882Z,100677.44
2022-10-10T13:20:02.145Z,100673.28
2022-10-10T13:22:32.928Z,100674.88
2022-10-10T13:25:11.688Z,100669.03
2022-10-10T13:27:41.828Z,100678.19
2022-10-10T13:30:26.452Z,100666.34
2022-10-10T13:32:57.522Z,100660.28
2022-10-10T13:35:29.166Z,100666.09
2022-10-10T13:38:01.215Z,100667.16
2022-10-10T13:40:30.888Z,100661.06
2022-10-10T13:43:00.113Z,100673.06
2022-10-10T13:45:37.244Z,100665.63
2022-10-10T13:48:18.689Z,100657.75
2022-10-10T13:51:14.940Z,100654.66
2022-10-10T13:53:48.998Z,100653.72
2022-10-10T13:56:24.758Z,100650.06
2022-10-10T13:58:55.951Z,100648.44
2022-10-10T14:01:34.723Z,100636.09
2022-10-10T14:04:15.834Z,100636.91
2022-10-10T14:06:57.830Z,100634.06
2022-10-10T14:09:32.089Z,100635.50
2022-10-10T14:12:03.163Z,100633.19
2022-10-10T14:14:36.331Z,100626.78
2022-10-10T14:17:06.825Z,100623.78
2022-10-10T14:19:35.566Z,100623.63
2022-10-10T14:22:05.659Z,100619.25
2022-10-10T14:24:34.887Z,100614.38
2022-10-10T14:27:13.554Z,100606.72
2022-10-10T14:29:42.387Z,100604.34
2022-10-10T14:32:11.675Z,100601.50
2022-10-10T14:34:40.851Z,100594.44
2022-10-10T14:37:18.179Z,100587.25
2022-10-10T14:39:47.750Z,100588.97
2022-10-10T14:42:22.729Z,100576.59
2022-10-10T14:44:51.663Z,100576.59
2022-10-10T14:47:22.024Z,100576.31
2022-10-10T14:49:52.770Z,100586.41
2022-10-10T14:52:23.316Z,100573.63
2022-10-10T14:54:51.831Z,100575.00
2022-10-10T14:57:22.587Z,100566.75
2022-10-10T14:59:51.328Z,100568.91
2022-10-10T15:02:21.942Z,100567.72
2022-10-10T15:04:53.170Z,100557.19
2022-10-10T15:07:23.687Z,100565.09
2022-10-10T15:10:19.228Z,100562.56
2022-10-10T15:12:43.442Z,100554.88
2022-10-10T15:15:13.487Z,100564.06
2022-10-10T15:17:42.836Z,100571.66
2022-10-10T15:20:13.968Z,100568.38
2022-10-10T15:22:48.118Z,100573.09
2022-10-10T15:25:19.510Z,100561.56
2022-10-10T15:27:51.128Z,100564.06
2022-10-10T15:30:19.801Z,100563.25
2022-10-10T15:32:51.592Z,100562.34
2022-10-10T15:35:23.743Z,100559.88
2022-10-10T15:37:55.957Z,100561.69
2022-10-10T15:40:25.508Z,100555.44
2022-10-10T15:42:54.604Z,100564.22
2022-10-10T15:45:51.052Z,100565.06
2022-10-10T15:48:12.267Z,100552.88
2022-10-10T15:50:43.603Z,100561.47
2022-10-10T15:53:14.453Z,100557.84
2022-10-10T15:55:44.600Z,100557.59
2022-10-10T15:58:13.440Z,100551.25
2022-10-10T16:00:43.949Z,100563.31
2022-10-10T16:03:18.635Z,100566.66
2022-10-10T16:05:48.810Z,100571.53
2022-10-10T16:08:19.661Z,100573.81
2022-10-10T16:10:48.709Z,100564.66
2022-10-10T16:13:17.707Z,100572.03
2022-10-10T16:15:46.399Z,100561.94
2022-10-10T16:18:15.039Z,100568.47
2022-10-10T16:20:44.041Z,100561.94
2022-10-10T16:23:12.742Z,100560.59
2022-10-10T16:25:43.332Z,100558.34
2022-10-10T16:28:11.923Z,100564.88
2022-10-10T16:30:41.147Z,100562.69
2022-10-10T16:33:09.684Z,100568.41
2022-10-10T16:35:38.974Z,100573.97
2022-10-10T16:38:07.670Z,100566.53
2022-10-10T16:40:37.648Z,100571.25
2022-10-10T16:43:07.888Z,100570.75
2022-10-10T16:45:41.736Z,100567.66
2022-10-10T16:48:10.361Z,100566.25
2022-10-10T16:50:42.713Z,100555.28
2022-10-10T16:53:12.427Z,100556.41
2022-10-10T16:55:43.445Z,100548.72
2022-10-10T16:58:13.670Z,100540.16
2022-10-10T17:00:44.088Z,100552.47
2022-10-10T17:03:13.180Z,100546.47
2022-10-10T17:05:46.988Z,100543.09
2022-10-10T17:08:18.847Z,100541.47
2022-10-10T17:10:47.531Z,100543.28
2022-10-10T17:13:17.947Z,100539.91
2022-10-10T17:15:47.062Z,100546.88
2022-10-10T17:18:17.598Z,100541.72
2022-10-10T17:20:46.832Z,100537.56
2022-10-10T17:23:17.289Z,100536.88
2022-10-10T17:25:47.919Z,100533.59
2022-10-10T17:28:18.607Z,100526.84
2022-10-10T17:30:50.322Z,100526.22
2022-10-10T17:33:20.962Z,100518.56
2022-10-10T17:35:51.055Z,100516.97
2022-10-10T17:38:38.451Z,100514.47
2022-10-10T17:41:11.292Z,100512.81
2022-10-10T17:43:45.405Z,100511.19
2022-10-10T17:46:36.874Z,100508.66
2022-10-10T17:49:07.001Z,100513.97
2022-10-10T17:51:37.443Z,100508.81
2022-10-10T17:54:10.309Z,100504.53
2022-10-10T17:56:40.807Z,100503.69
2022-10-10T17:59:11.177Z,100502.13
2022-10-10T18:01:41.433Z,100502.31
2022-10-10T18:04:10.279Z,100502.53
2022-10-10T18:06:39.628Z,100508.66
2022-10-10T18:09:08.653Z,100496.59
2022-10-10T18:11:37.628Z,100499.34
2022-10-10T18:14:06.851Z,100495.00
2022-10-10T18:16:37.441Z,100493.28
2022-10-10T18:19:07.776Z,100488.06
2022-10-10T18:21:37.113Z,100484.66
2022-10-10T18:24:06.264Z,100475.13
2022-10-10T18:26:35.225Z,100476.00
2022-10-10T18:29:06.650Z,100476.97
2022-10-10T18:31:38.527Z,100470.94
2022-10-10T18:34:08.818Z,100467.59
2022-10-10T18:36:38.879Z,100466.75
2022-10-10T18:39:09.737Z,100466.91
2022-10-10T18:41:39.321Z,100469.59
2022-10-10T18:44:10.306Z,100469.59
2022-10-10T18:46:41.141Z,100464.34
2022-10-10T18:49:11.973Z,100465.25
2022-10-10T18:51:43.322Z,100463.59
2022-10-10T18:54:14.931Z,100464.50
2022-10-10T18:56:45.192Z,100459.31
2022-10-10T18:59:15.961Z,100461.03
2022-10-10T19:01:47.214Z,100450.56
2022-10-10T19:04:17.521Z,100453.06
2022-10-10T19:06:46.493Z,100440.06
2022-10-10T19:09:18.421Z,100441.09
2022-10-10T19:11:50.186Z,100449.13
2022-10-10T19:14:19.743Z,100439.63
2022-10-10T19:16:53.041Z,100438.75
2022-10-10T19:19:21.855Z,100436.16
2022-10-10T19:21:51.267Z,100438.75
2022-10-10T19:24:21.622Z,100440.56
2022-10-10T19:26:53.598Z,100440.56
2022-10-10T19:29:25.131Z,100441.47
2022-10-10T19:31:56.348Z,100433.75
2022-10-10T19:34:25.844Z,100438.06
2022-10-10T19:36:57.774Z,100428.50
2022-10-10T19:39:26.839Z,100437.13
2022-10-10T19:41:55.903Z,100436.28
2022-10-10T19:44:24.660Z,100438.88
2022-10-10T19:46:56.465Z,100441.50
2022-10-10T19:49:25.376Z,100440.78
2022-10-10T19:51:54.702Z,100433.97
2022-10-10T19:54:23.498Z,100428.81
2022-10-10T19:56:52.829Z,100433.28
2022-10-10T19:59:21.577Z,100436.88
2022-10-10T20:01:53.467Z,100429.16
2022-10-10T20:04:23.839Z,100426.72
2022-10-10T20:06:52.635Z,100423.28
2022-10-10T20:09:21.591Z,100424.19
2022-10-10T20:11:50.352Z,100422.47
2022-10-10T20:14:19.057Z,100422.53
2022-10-10T20:16:47.880Z,100428.59
2022-10-10T20:19:16.501Z,100413.81
2022-10-10T20:21:46.984Z,100411.28
2022-10-10T20:24:16.058Z,100417.34
2022-10-10T20:26:44.958Z,100412.94
2022-10-10T20:29:15.483Z,100412.03
2022-10-10T20:31:44.347Z,100410.25
2022-10-10T20:34:13.898Z,100404.09
2022-10-10T20:36:43.041Z,100410.06
2022-10-10T20:39:15.264Z,100403.06
2022-10-10T20:41:44.255Z,100396.03
2022-10-10T20:44:14.777Z,100393.44
2022-10-10T20:46:45.921Z,100389.88
2022-10-10T20:49:16.991Z,100398.44
2022-10-10T20:51:48.920Z,100390.56
2022-10-10T20:54:20.571Z,100390.50
2022-10-10T20:56:50.018Z,100386.97
2022-10-10T20:59:19.104Z,100389.53
2022-10-10T21:01:47.953Z,100390.22
2022-10-10T21:04:17.034Z,100385.72
2022-10-10T21:06:46.711Z,100390.91
2022-10-10T21:09:16.740Z,100383.13
2022-10-10T21:11:50.568Z,100379.59
2022-10-10T21:14:19.800Z,100371.81
2022-10-10T21:16:50.943Z,100375.28
2022-10-10T21:19:20.449Z,100370.06
2022-10-10T21:21:49.258Z,100375.31
2022-10-10T21:24:18.577Z,100375.38
2022-10-10T21:26:50.505Z,100367.47
2022-10-10T21:29:23.069Z,100370.88
2022-10-10T21:31:51.941Z,100375.19
2022-10-10T21:34:20.775Z,100370.88
2022-10-10T21:36:50.177Z,100376.19
2022-10-10T21:39:19.209Z,100370.16
2022-10-10T21:41:49.407Z,100370.22
2022-10-10T21:44:18.357Z,100367.78
2022-10-10T21:46:46.971Z,100367.84
2022-10-10T21:49:15.705Z,100367.94
2022-10-10T21:51:46.810Z,100354.03
2022-10-10T21:54:16.041Z,100361.88
2022-10-10T21:56:45.455Z,100361.06
2022-10-10T21:59:17.633Z,100359.31
2022-10-10T22:01:46.315Z,100360.22
2022-10-10T22:04:15.180Z,100351.59
2022-10-10T22:06:44.844Z,100355.91
2022-10-10T22:09:13.575Z,100357.72
2022-10-10T22:11:42.574Z,100345.59
2022-10-10T22:14:11.618Z,100346.59
2022-10-10T22:16:41.781Z,100347.41
2022-10-10T22:19:11.090Z,100339.59
2022-10-10T22:21:40.125Z,100337.94
2022-10-10T22:24:09.814Z,100346.66
2022-10-10T22:26:38.780Z,100337.19
2022-10-10T22:29:07.431Z,100332.88
2022-10-10T22:31:37.949Z,100343.34
2022-10-10T22:34:09.720Z,100339.06
2022-10-10T22:36:38.287Z,100335.63
2022-10-10T22:39:09.046Z,100327.91
2022-10-10T22:41:38.239Z,100331.53
2022-10-10T22:44:06.973Z,100332.47
2022-10-10T22:46:35.660Z,100330.84
2022-10-10T22:49:04.657Z,100327.41
2022-10-10T22:51:34.732Z,100324.09
2022-10-10T22:54:03.437Z,100326.59
2022-10-10T22:56:32.110Z,100315.34
2022-10-10T22:59:00.674Z,100321.38
2022-10-10T23:01:29.452Z,100323.16
2022-10-10T23:04:00.752Z,100325.69
2022-10-10T23:06:29.376Z,100319.59
2022-10-10T23:08:59.501Z,100314.31
2022-10-10T23:11:28.439Z,100313.41
2022-10-10T23:13:57.380Z,100309.88
2022-10-10T23:16:25.994Z,100314.25
2022-10-10T23:18:54.692Z,100308.22
2022-10-10T23:21:23.274Z,100317.00
2022-10-10T23:23:52.539Z,100311.84
2022-10-10T23:26:22.554Z,100315.25
2022-10-10T23:28:52.081Z,100315.25
2022-10-10T23:31:20.752Z,100304.88
2022-10-10T23:33:49.318Z,100310.13
2022-10-10T23:36:18.593Z,100298.94
2022-10-10T23:38:47.757Z,100298.16
2022-10-10T23:41:16.361Z,100293.91
2022-10-10T23:43:46.807Z,100293.13
2022-10-10T23:46:16.062Z,100300.88
2022-10-10T23:48:44.660Z,100306.00
2022-10-10T23:51:13.427Z,100289.53
2022-10-10T23:53:41.854Z,100292.13
2022-10-10T23:56:10.434Z,100292.88
2022-10-10T23:58:39.042Z,100286.78
